createdAt,value
2018-08-28T00:00:14.283Z,87.35
2018-08-28T00:01:14.272Z,86.68
2018-08-28T00:02:14.278Z,87.15
2018-08-28T00:03:14.262Z,87.11
2018-08-28T00:04:14.262Z,86.92
2018-08-28T00:05:14.001Z,87.11
2018-08-28T00:06:13.997Z,86.92
2018-08-28T00:07:14.246Z,86.92
2018-08-28T00:08:14.240Z,86.72
2018-08-28T00:09:13.985Z,87.4
2018-08-28T00:10:14.233Z,87.59
2018-08-28T00:11:14.230Z,87.59
2018-08-28T00:12:14.225Z,87.59
2018-08-28T00:13:14.224Z,87.49
2018-08-28T00:14:14.216Z,87.49
2018-08-28T00:15:13.961Z,87.68
2018-08-28T00:16:14.468Z,87.68
2018-08-28T00:17:14.272Z,87.4
2018-08-28T00:18:14.199Z,87.49
2018-08-28T00:19:14.197Z,87.4
2018-08-28T00:20:14.191Z,87.68
2018-08-28T00:21:14.189Z,87.49
2018-08-28T00:22:14.182Z,87.44
2018-08-28T00:23:14.181Z,87.4
2018-08-28T00:24:14.177Z,87.49
2018-08-28T00:25:14.173Z,87.59
2018-08-28T00:26:14.167Z,87.49
2018-08-28T00:27:13.910Z,87.4
2018-08-28T00:28:14.156Z,87.59
2018-08-28T00:29:14.156Z,87.59
2018-08-28T00:30:13.897Z,87.59
2018-08-28T00:31:13.892Z,87.4
2018-08-28T00:32:14.139Z,87.59
2018-08-28T00:33:14.135Z,87.3
2018-08-28T00:34:14.132Z,87.49
2018-08-28T00:35:14.126Z,87.49
2018-08-28T00:36:14.123Z,87.59
2018-08-28T00:37:14.119Z,87.4
2018-08-28T00:38:14.117Z,87.3
2018-08-28T00:39:14.110Z,87.21
2018-08-28T00:40:14.106Z,87.68
2018-08-28T00:41:13.849Z,87.3
2018-08-28T00:42:14.101Z,87.68
2018-08-28T00:43:14.093Z,87.21
2018-08-28T00:44:14.093Z,87.21
2018-08-28T00:45:14.083Z,87.59
2018-08-28T00:46:14.079Z,87.21
2018-08-28T00:47:14.073Z,87.4
2018-08-28T00:48:14.071Z,87.49
2018-08-28T00:49:14.065Z,87.3
2018-08-28T00:50:13.809Z,87.4
2018-08-28T00:51:14.057Z,87.3
2018-08-28T00:52:14.125Z,87.68
2018-08-28T00:53:14.055Z,87.49
2018-08-28T00:54:14.050Z,87.98
2018-08-28T00:55:14.044Z,87.49
2018-08-28T00:56:14.037Z,87.3
2018-08-28T00:57:14.031Z,87.3
2018-08-28T00:59:13.772Z,87.59
2018-08-28T01:00:13.767Z,87.49
2018-08-28T01:02:14.010Z,87.49
2018-08-28T01:03:14.010Z,87.59
2018-08-28T01:04:14.001Z,87.59
2018-08-28T01:05:13.998Z,87.98
2018-08-28T01:07:13.987Z,87.98
2018-08-28T01:08:13.985Z,87.59
2018-08-28T01:09:16.064Z,87.78
2018-08-28T01:10:13.975Z,87.59
2018-08-28T01:11:13.971Z,87.98
2018-08-28T01:12:13.970Z,88.07
2018-08-28T01:14:13.959Z,87.78
2018-08-28T01:18:13.940Z,87.78
2018-08-28T01:20:13.933Z,87.98
2018-08-28T01:21:13.934Z,87.78
2018-08-28T01:22:13.923Z,87.49
2018-08-28T01:24:13.918Z,87.98
2018-08-28T01:25:13.911Z,87.68
2018-08-28T01:26:13.907Z,87.68
2018-08-28T01:27:13.902Z,87.59
2018-08-28T01:28:13.898Z,87.78
2018-08-28T01:29:13.892Z,87.68
2018-08-28T01:30:13.637Z,87.68
2018-08-28T01:31:13.886Z,87.68
2018-08-28T01:32:13.880Z,87.68
2018-08-28T01:33:13.624Z,87.78
2018-08-28T01:34:13.871Z,87.68
2018-08-28T01:36:13.864Z,87.68
2018-08-28T01:37:14.023Z,87.78
2018-08-28T01:38:13.854Z,87.59
2018-08-28T01:39:13.854Z,87.98
2018-08-28T01:40:13.847Z,87.78
2018-08-28T01:41:13.841Z,87.88
2018-08-28T01:42:13.837Z,87.49
2018-08-28T01:43:13.832Z,88.26
2018-08-28T01:44:13.827Z,88.17
2018-08-28T01:45:13.824Z,87.88
2018-08-28T01:46:13.568Z,87.88
2018-08-28T01:47:13.819Z,87.98
2018-08-28T01:48:13.810Z,88.17
2018-08-28T01:49:13.812Z,88.17
2018-08-28T01:50:13.802Z,87.88
2018-08-28T01:51:13.795Z,87.78
2018-08-28T01:52:13.793Z,87.78
2018-08-28T01:53:13.789Z,87.78
2018-08-28T01:54:13.784Z,87.68
2018-08-28T01:55:13.779Z,87.78
2018-08-28T01:56:13.774Z,87.78
2018-08-28T01:57:13.525Z,87.78
2018-08-28T01:58:13.768Z,87.78
2018-08-28T01:59:13.763Z,87.98
2018-08-28T02:00:13.758Z,87.68
2018-08-28T02:01:13.754Z,87.98
2018-08-28T02:02:13.497Z,87.78
2018-08-28T02:03:13.744Z,87.98
2018-08-28T02:04:13.740Z,88.55
2018-08-28T02:05:13.737Z,88.45
2018-08-28T02:06:13.737Z,88.17
2018-08-28T02:07:13.727Z,88.26
2018-08-28T02:08:13.723Z,88.84
2018-08-28T02:09:13.722Z,88.26
2018-08-28T02:10:13.717Z,88.17
2018-08-28T02:11:13.711Z,88.74
2018-08-28T02:12:13.454Z,88.35
2018-08-28T02:13:13.889Z,88.35
2018-08-28T02:14:13.696Z,88.45
2018-08-28T02:15:13.695Z,88.55
2018-08-28T02:16:13.691Z,88.35
2018-08-28T02:17:13.430Z,88.26
2018-08-28T02:18:13.679Z,88.45
2018-08-28T02:19:13.673Z,88.35
2018-08-28T02:20:13.675Z,88.45
2018-08-28T02:21:13.681Z,88.55
2018-08-28T02:22:13.914Z,88.26
2018-08-28T02:23:13.655Z,88.26
2018-08-28T02:24:13.652Z,88.45
2018-08-28T02:25:13.647Z,88.65
2018-08-28T02:26:13.647Z,88.93
2018-08-28T02:27:13.642Z,88.74
2018-08-28T02:28:13.634Z,89.03
2018-08-28T02:29:13.634Z,89.32
2018-08-28T02:30:13.625Z,89.12
2018-08-28T02:31:13.620Z,89.12
2018-08-28T02:32:13.615Z,89.41
2018-08-28T02:33:13.613Z,89.12
2018-08-28T02:34:13.608Z,88.93
2018-08-28T02:35:13.607Z,89.41
2018-08-28T02:36:13.602Z,89.18
2018-08-28T02:37:13.342Z,89.27
2018-08-28T02:38:13.590Z,89.65
2018-08-28T02:39:13.584Z,89.47
2018-08-28T02:40:13.580Z,89.37
2018-08-28T02:41:13.577Z,89.47
2018-08-28T02:42:13.573Z,89.85
2018-08-28T02:43:13.567Z,89.94
2018-08-28T02:44:13.570Z,89.65
2018-08-28T02:45:13.561Z,89.47
2018-08-28T02:46:13.303Z,89.65
2018-08-28T02:47:13.546Z,89.94
2018-08-28T02:48:13.543Z,90.14
2018-08-28T02:49:13.540Z,90.14
2018-08-28T02:50:13.541Z,90.23
2018-08-28T02:51:13.281Z,90.52
2018-08-28T02:52:13.527Z,90.33
2018-08-28T02:53:13.522Z,90.52
2018-08-28T02:54:13.515Z,90.42
2018-08-28T02:55:13.511Z,91
2018-08-28T02:56:13.747Z,91.09
2018-08-28T02:57:13.501Z,90.67
2018-08-28T02:58:13.498Z,90.57
2018-08-28T02:59:13.500Z,90.95
2018-08-28T03:00:13.487Z,91.43
2018-08-28T03:01:13.483Z,91.53
2018-08-28T03:02:13.478Z,91.24
2018-08-28T03:03:13.478Z,91.05
2018-08-28T03:04:13.469Z,91.14
2018-08-28T03:05:13.465Z,90.95
2018-08-28T03:06:13.208Z,91.63
2018-08-28T03:07:13.461Z,91.53
2018-08-28T03:08:13.456Z,91.43
2018-08-28T03:09:13.447Z,91.63
2018-08-28T03:10:13.449Z,91.34
2018-08-28T03:11:13.206Z,91.63
2018-08-28T03:12:13.429Z,91.82
2018-08-28T03:13:13.424Z,92.2
2018-08-28T03:14:13.420Z,91.53
2018-08-28T03:15:13.414Z,91.49
2018-08-28T03:16:13.489Z,91.77
2018-08-28T03:17:13.408Z,91.77
2018-08-28T03:18:13.400Z,91.77
2018-08-28T03:19:13.394Z,91.96
2018-08-28T03:20:13.390Z,92.06
2018-08-28T03:21:13.387Z,91.77
2018-08-28T03:22:13.379Z,91.58
2018-08-28T03:23:13.381Z,92.06
2018-08-28T03:24:13.369Z,91.96
2018-08-28T03:25:13.365Z,92.44
2018-08-28T03:26:13.365Z,91.77
2018-08-28T03:27:13.357Z,92.15
2018-08-28T03:28:13.354Z,92.63
2018-08-28T03:29:13.567Z,92.54
2018-08-28T03:30:13.340Z,92.82
2018-08-28T03:31:13.336Z,92.68
2018-08-28T03:32:13.330Z,92.73
2018-08-28T03:33:13.323Z,92.49
2018-08-28T03:34:13.321Z,92.97
2018-08-28T03:35:13.323Z,92.78
2018-08-28T03:36:13.309Z,92.49
2018-08-28T03:37:13.343Z,93.07
2018-08-28T03:38:13.356Z,92.97
2018-08-28T03:39:13.296Z,92.87
2018-08-28T03:40:13.306Z,92.87
2018-08-28T03:41:13.040Z,93.07
2018-08-28T03:42:13.283Z,92.87
2018-08-28T03:43:13.273Z,92.97
2018-08-28T03:44:13.268Z,92.97
2018-08-28T03:45:13.265Z,93.26
2018-08-28T03:46:13.259Z,92.87
2018-08-28T03:47:12.998Z,93.16
2018-08-28T03:49:13.238Z,93.26
2018-08-28T03:50:13.234Z,93.16
2018-08-28T03:51:12.980Z,93.26
2018-08-28T03:52:13.222Z,92.97
2018-08-28T03:54:13.215Z,93.16
2018-08-28T03:55:13.260Z,93.16
2018-08-28T03:56:13.201Z,92.97
2018-08-28T03:57:13.198Z,92.87
2018-08-28T03:58:12.939Z,92.87
2018-08-28T04:00:13.181Z,92.58
2018-08-28T04:01:13.176Z,92.68
2018-08-28T04:02:12.919Z,93.26
2018-08-28T04:03:12.918Z,93.26
2018-08-28T04:04:13.158Z,92.87
2018-08-28T04:05:13.205Z,93.16
2018-08-28T04:07:13.147Z,93.07
2018-08-28T04:08:13.139Z,92.78
2018-08-28T04:09:12.886Z,92.87
2018-08-28T04:10:12.876Z,92.78
2018-08-28T04:11:13.121Z,92.97
2018-08-28T04:12:12.862Z,92.78
2018-08-28T04:13:13.110Z,93.07
2018-08-28T04:14:12.855Z,92.78
2018-08-28T04:15:13.101Z,92.68
2018-08-28T04:16:13.096Z,92.78
2018-08-28T04:17:13.280Z,92.97
2018-08-28T04:18:13.083Z,93.64
2018-08-28T04:19:13.078Z,93.45
2018-08-28T04:20:12.819Z,93.35
2018-08-28T04:21:13.065Z,93.54
2018-08-28T04:22:13.064Z,93.54
2018-08-28T04:23:13.054Z,93.45
2018-08-28T04:24:13.048Z,93.35
2018-08-28T04:25:13.043Z,93.64
2018-08-28T04:26:13.041Z,92.97
2018-08-28T04:27:12.783Z,93.54
2018-08-28T04:28:13.028Z,93.54
2018-08-28T04:29:13.023Z,93.26
2018-08-28T04:30:13.016Z,93.16
2018-08-28T04:31:13.010Z,93.26
2018-08-28T04:32:13.008Z,93.26
2018-08-28T04:33:13.015Z,93.35
2018-08-28T04:34:13.002Z,93.35
2018-08-28T04:35:12.988Z,93.45
2018-08-28T04:36:12.984Z,93.83
2018-08-28T04:37:12.980Z,93.45
2018-08-28T04:38:12.719Z,93.93
2018-08-28T04:39:12.713Z,93.93
2018-08-28T04:40:12.960Z,93.35
2018-08-28T04:41:12.952Z,93.26
2018-08-28T04:42:12.949Z,93.26
2018-08-28T04:43:12.942Z,93.35
2018-08-28T04:44:12.686Z,93.26
2018-08-28T04:45:12.932Z,93.54
2018-08-28T04:46:12.936Z,93.26
2018-08-28T04:47:12.669Z,92.97
2018-08-28T04:48:12.663Z,92.73
2018-08-28T04:49:12.911Z,92.92
2018-08-28T04:50:12.903Z,93.02
2018-08-28T04:51:12.901Z,93.49
2018-08-28T04:52:12.643Z,93.3
2018-08-28T04:53:12.638Z,92.82
2018-08-28T04:54:13.015Z,92.44
2018-08-28T04:55:12.879Z,92.87
2018-08-28T04:56:12.875Z,92.77
2018-08-28T04:57:12.869Z,92.77
2018-08-28T04:58:12.613Z,92.39
2018-08-28T04:59:12.609Z,92.2
2018-08-28T05:00:12.855Z,91.82
2018-08-28T05:01:12.597Z,92.05
2018-08-28T05:02:12.844Z,92.24
2018-08-28T05:03:12.588Z,91.48
2018-08-28T05:04:12.584Z,91.48
2018-08-28T05:05:12.833Z,91.19
2018-08-28T05:06:12.574Z,91.48
2018-08-28T05:07:12.569Z,91.86
2018-08-28T05:08:12.816Z,90.61
2018-08-28T05:09:12.813Z,91.28
2018-08-28T05:10:12.808Z,90.85
2018-08-28T05:11:12.550Z,90.61
2018-08-28T05:12:12.803Z,90.37
2018-08-28T05:13:12.793Z,89.99
2018-08-28T05:14:12.539Z,90.08
2018-08-28T05:15:12.790Z,89.79
2018-08-28T05:16:12.780Z,90.18
2018-08-28T05:17:12.523Z,90.08
2018-08-28T05:18:12.776Z,89.89
2018-08-28T05:19:12.518Z,89.51
2018-08-28T05:20:12.768Z,89.32
2018-08-28T05:21:12.760Z,89.32
2018-08-28T05:22:12.754Z,89.41
2018-08-28T05:23:12.753Z,89.61
2018-08-28T05:24:12.746Z,89.22
2018-08-28T05:25:12.743Z,89.36
2018-08-28T05:26:12.737Z,88.79
2018-08-28T05:27:12.735Z,89.17
2018-08-28T05:28:12.481Z,88.69
2018-08-28T05:29:12.476Z,88.59
2018-08-28T05:30:12.723Z,88.79
2018-08-28T05:31:12.715Z,88.59
2018-08-28T05:32:12.460Z,88.69
2018-08-28T05:33:12.463Z,88.79
2018-08-28T05:34:12.705Z,88.21
2018-08-28T05:35:12.448Z,88.02
2018-08-28T05:36:12.697Z,88.02
2018-08-28T05:37:12.441Z,88.06
2018-08-28T05:38:12.585Z,88.06
2018-08-28T05:39:12.685Z,87.77
2018-08-28T05:40:12.681Z,87.49
2018-08-28T05:41:12.693Z,87.01
2018-08-28T05:42:12.672Z,87.29
2018-08-28T05:43:12.418Z,87.15
2018-08-28T05:44:12.420Z,87.15
2018-08-28T05:45:12.410Z,86.76
2018-08-28T05:46:12.405Z,86.57
2018-08-28T05:47:12.661Z,86.57
2018-08-28T05:48:12.655Z,86.47
2018-08-28T05:49:12.395Z,86.66
2018-08-28T05:50:12.392Z,86.18
2018-08-28T05:51:12.653Z,86.38
2018-08-28T05:53:12.381Z,86.32
2018-08-28T05:54:12.631Z,85.84
2018-08-28T05:55:12.376Z,85.65
2018-08-28T05:56:12.543Z,85.65
2018-08-28T05:57:12.369Z,85.46
2018-08-28T05:58:12.618Z,85.17
2018-08-28T05:59:12.621Z,84.98
2018-08-28T06:00:12.610Z,84.63
2018-08-28T06:01:12.607Z,84.16
2018-08-28T06:02:12.354Z,84.34
2018-08-28T06:03:12.936Z,84.25
2018-08-28T06:04:12.346Z,83.86
2018-08-28T06:05:12.344Z,83.67
2018-08-28T06:06:12.341Z,83.81
2018-08-28T06:07:12.602Z,83.39
2018-08-28T06:08:12.594Z,83.42
2018-08-28T06:09:12.336Z,83.62
2018-08-28T06:10:13.392Z,83.33
2018-08-28T06:11:12.326Z,82.75
2018-08-28T06:12:12.324Z,82.85
2018-08-28T06:13:12.321Z,82.46
2018-08-28T06:14:12.318Z,82.46
2018-08-28T06:15:12.575Z,82.5
2018-08-28T06:16:12.314Z,82.21
2018-08-28T06:17:12.563Z,82.12
2018-08-28T06:19:12.560Z,82.02
2018-08-28T06:21:12.556Z,81.25
2018-08-28T06:22:12.549Z,81.45
2018-08-28T06:23:13.004Z,80.96
2018-08-28T06:24:12.551Z,81.1
2018-08-28T06:25:12.551Z,80.91
2018-08-28T06:26:12.592Z,80.71
2018-08-28T06:27:12.288Z,80.14
2018-08-28T06:28:12.545Z,80.43
2018-08-28T06:29:12.539Z,79.66
2018-08-28T06:30:12.534Z,79.79
2018-08-28T06:31:12.540Z,79.6
2018-08-28T06:32:12.536Z,79.5
2018-08-28T06:33:12.277Z,78.77
2018-08-28T06:34:12.561Z,78.09
2018-08-28T06:35:12.279Z,76.93
2018-08-28T06:36:12.533Z,76.4
2018-08-28T06:37:12.285Z,75.53
2018-08-28T06:38:12.528Z,75.53
2018-08-28T06:39:12.533Z,74.6
2018-08-28T06:40:12.558Z,74.06
2018-08-28T06:41:12.525Z,73.96
2018-08-28T06:42:12.530Z,72.71
2018-08-28T06:43:12.274Z,72.26
2018-08-28T06:44:12.529Z,71.52
2018-08-28T06:45:12.534Z,71.04
2018-08-28T06:46:12.528Z,70.01
2018-08-28T06:47:12.532Z,69.14
2018-08-28T06:48:12.282Z,67.82
2018-08-28T06:49:12.282Z,66.85
2018-08-28T06:50:12.537Z,66.4
2018-08-28T06:51:12.548Z,64.95
2018-08-28T06:52:12.289Z,64.01
2018-08-28T06:53:12.292Z,63.14
2018-08-28T06:54:12.295Z,62.4
2018-08-28T06:55:12.551Z,61.43
2018-08-28T06:56:12.607Z,59.81
2018-08-28T06:57:12.310Z,59.71
2018-08-28T06:58:12.561Z,59.36
2018-08-28T06:59:12.571Z,58.58
2018-08-28T07:00:12.578Z,57.7
2018-08-28T07:01:12.326Z,56.76
2018-08-28T07:02:12.656Z,55.99
2018-08-28T07:03:12.332Z,56.86
2018-08-28T07:04:12.590Z,56.18
2018-08-28T07:05:12.598Z,56.5
2018-08-28T07:06:12.603Z,55.73
2018-08-28T07:07:12.354Z,54.49
2018-08-28T07:08:12.611Z,53.91
2018-08-28T07:09:12.364Z,53.16
2018-08-28T07:10:12.696Z,52.96
2018-08-28T07:11:12.376Z,51.99
2018-08-28T07:12:12.636Z,51.72
2018-08-28T07:13:12.387Z,51.82
2018-08-28T07:14:12.647Z,50.85
2018-08-28T07:15:12.654Z,50.97
2018-08-28T07:16:12.661Z,50.78
2018-08-28T07:17:12.415Z,49.54
2018-08-28T07:18:12.674Z,49.05
2018-08-28T07:19:12.692Z,49.24
2018-08-28T07:20:12.687Z,48.58
2018-08-28T07:21:12.695Z,48.29
2018-08-28T07:22:12.715Z,48
2018-08-28T07:23:12.711Z,47.22
2018-08-28T07:24:12.465Z,47.25
2018-08-28T07:25:12.725Z,47.05
2018-08-28T07:26:12.577Z,46.78
2018-08-28T07:27:12.740Z,46.88
2018-08-28T07:28:12.748Z,46.69
2018-08-28T07:29:12.760Z,46.2
2018-08-28T07:30:12.767Z,45.9
2018-08-28T07:31:12.556Z,44.95
2018-08-28T07:32:12.529Z,45.15
2018-08-28T07:33:12.791Z,44.95
2018-08-28T07:34:12.800Z,44.85
2018-08-28T07:35:12.555Z,45.05
2018-08-28T07:36:12.812Z,44.56
2018-08-28T07:37:12.882Z,44.07
2018-08-28T07:38:12.827Z,43.71
2018-08-28T07:39:12.837Z,43.71
2018-08-28T07:40:12.593Z,43.71
2018-08-28T07:41:12.602Z,43.22
2018-08-28T07:42:12.609Z,42.34
2018-08-28T07:43:12.618Z,42.63
2018-08-28T07:44:12.879Z,42.54
2018-08-28T07:45:12.888Z,42.54
2018-08-28T07:46:12.895Z,41.85
2018-08-28T07:47:12.910Z,41.27
2018-08-28T07:48:12.939Z,41.66
2018-08-28T07:49:12.920Z,41.63
2018-08-28T07:50:12.939Z,42.51
2018-08-28T07:51:12.939Z,42.32
2018-08-28T07:52:12.948Z,42.22
2018-08-28T07:53:12.958Z,41.93
2018-08-28T07:54:12.965Z,41.73
2018-08-28T07:55:12.979Z,41.83
2018-08-28T07:56:12.982Z,41.93
2018-08-28T07:57:12.991Z,42.12
2018-08-28T07:58:13.000Z,42.02
2018-08-28T07:59:12.755Z,41.54
2018-08-28T08:00:13.021Z,41.15
2018-08-28T08:01:13.108Z,41.73
2018-08-28T08:02:13.039Z,42.1
2018-08-28T08:03:13.041Z,42.41
2018-08-28T08:04:13.054Z,42.02
2018-08-28T08:05:12.808Z,41.54
2018-08-28T08:06:13.068Z,41.44
2018-08-28T08:07:13.078Z,41.27
2018-08-28T08:08:13.092Z,41.17
2018-08-28T08:09:13.097Z,41.27
2018-08-28T08:10:13.110Z,40.78
2018-08-28T08:11:13.113Z,40.78
2018-08-28T08:12:13.123Z,39.7
2018-08-28T08:13:13.131Z,40
2018-08-28T08:14:13.140Z,39.22
2018-08-28T08:15:13.148Z,39.88
2018-08-28T08:16:13.409Z,40.27
2018-08-28T08:17:13.168Z,40.27
2018-08-28T08:18:13.190Z,39.78
2018-08-28T08:19:13.189Z,40.06
2018-08-28T08:20:13.195Z,40.45
2018-08-28T08:21:13.203Z,41.01
2018-08-28T08:22:13.067Z,40.91
2018-08-28T08:23:13.223Z,40.83
2018-08-28T08:24:13.228Z,40.72
2018-08-28T08:25:13.237Z,40.62
2018-08-28T08:26:13.250Z,40.42
2018-08-28T08:27:13.254Z,40.72
2018-08-28T08:28:13.814Z,40.31
2018-08-28T08:29:13.278Z,40.5
2018-08-28T08:30:13.028Z,40.5
2018-08-28T08:31:13.289Z,41.16
2018-08-28T08:32:13.044Z,41.73
2018-08-28T08:33:13.306Z,42.11
2018-08-28T08:34:13.065Z,42.7
2018-08-28T08:35:13.116Z,43.16
2018-08-28T08:36:13.328Z,43.46
2018-08-28T08:37:13.339Z,43.55
2018-08-28T08:38:13.345Z,43.65
2018-08-28T08:39:13.348Z,44.14
2018-08-28T08:40:13.352Z,44.41
2018-08-28T08:41:13.359Z,44.6
2018-08-28T08:42:13.564Z,45.07
2018-08-28T08:43:13.118Z,46.23
2018-08-28T08:44:13.376Z,46.52
2018-08-28T08:45:13.380Z,46.5
2018-08-28T08:46:13.387Z,46.11
2018-08-28T08:47:13.391Z,45.53
2018-08-28T08:48:13.394Z,45.43
2018-08-28T08:49:13.402Z,45.72
2018-08-28T08:50:13.405Z,45.7
2018-08-28T08:51:13.448Z,45.89
2018-08-28T08:52:13.411Z,46.19
2018-08-28T08:53:13.417Z,45.97
2018-08-28T08:54:13.431Z,46.45
2018-08-28T08:55:13.175Z,46.65
2018-08-28T08:56:13.428Z,46.72
2018-08-28T08:57:13.562Z,47.28
2018-08-28T08:58:13.187Z,47.67
2018-08-28T08:59:13.443Z,48.06
2018-08-28T09:00:13.191Z,48.15
2018-08-28T09:01:13.445Z,48.15
2018-08-28T09:02:13.447Z,48.06
2018-08-28T09:03:13.449Z,48.35
2018-08-28T09:04:13.452Z,48.25
2018-08-28T09:05:13.455Z,48.35
2018-08-28T09:06:13.859Z,48.32
2018-08-28T09:07:13.459Z,48.71
2018-08-28T09:08:13.210Z,48.81
2018-08-28T09:09:13.468Z,48.83
2018-08-28T09:10:13.466Z,48.81
2018-08-28T09:11:13.470Z,48.61
2018-08-28T09:12:13.615Z,49.12
2018-08-28T09:13:13.222Z,49.61
2018-08-28T09:14:13.223Z,48.74
2018-08-28T09:15:13.225Z,48.22
2018-08-28T09:16:13.486Z,48.32
2018-08-28T09:17:13.232Z,48.03
2018-08-28T09:18:13.484Z,48.32
2018-08-28T09:19:13.583Z,48.35
2018-08-28T09:20:13.492Z,48.15
2018-08-28T09:21:13.236Z,48.25
2018-08-28T09:22:13.491Z,48.25
2018-08-28T09:23:13.240Z,48.25
2018-08-28T09:24:13.497Z,47.89
2018-08-28T09:25:13.244Z,47.79
2018-08-28T09:26:13.498Z,47.79
2018-08-28T09:27:13.501Z,47.69
2018-08-28T09:28:13.502Z,47.98
2018-08-28T09:29:13.253Z,47.98
2018-08-28T09:30:13.254Z,47.3
2018-08-28T09:31:13.361Z,47.4
2018-08-28T09:32:13.618Z,46.14
2018-08-28T09:33:13.516Z,46.31
2018-08-28T09:34:13.515Z,47.4
2018-08-28T09:35:13.517Z,47.11
2018-08-28T09:36:13.518Z,46.92
2018-08-28T09:37:13.526Z,47.02
2018-08-28T09:38:13.597Z,46.82
2018-08-28T09:39:13.524Z,46.14
2018-08-28T09:40:13.530Z,46.62
2018-08-28T09:41:13.537Z,46.43
2018-08-28T09:42:13.283Z,45.65
2018-08-28T09:43:13.283Z,45.65
2018-08-28T09:44:13.539Z,46.02
2018-08-28T09:45:13.542Z,46.12
2018-08-28T09:46:13.542Z,46.99
2018-08-28T09:47:13.547Z,46.99
2018-08-28T09:48:13.970Z,46.6
2018-08-28T09:49:13.554Z,46.58
2018-08-28T09:50:13.630Z,46.51
2018-08-28T09:51:13.797Z,46.58
2018-08-28T09:52:13.302Z,46.58
2018-08-28T09:53:13.565Z,46.7
2018-08-28T09:54:13.555Z,45.92
2018-08-28T09:55:13.314Z,45.92
2018-08-28T09:56:13.310Z,45.75
2018-08-28T09:57:13.311Z,44.98
2018-08-28T09:58:13.312Z,44.49
2018-08-28T09:59:13.314Z,44.78
2018-08-28T10:00:13.317Z,45.27
2018-08-28T10:01:13.569Z,44.98
2018-08-28T10:02:13.572Z,44.88
2018-08-28T10:03:13.322Z,45.29
2018-08-28T10:04:13.324Z,44.9
2018-08-28T10:05:13.344Z,44.64
2018-08-28T10:06:13.330Z,44.15
2018-08-28T10:07:13.584Z,43.37
2018-08-28T10:08:13.333Z,42.79
2018-08-28T10:09:13.336Z,42.43
2018-08-28T10:10:13.596Z,42.71
2018-08-28T10:11:13.342Z,43.2
2018-08-28T10:12:13.597Z,43.59
2018-08-28T10:13:13.346Z,43.4
2018-08-28T10:14:13.603Z,43.4
2018-08-28T10:15:13.352Z,43.49
2018-08-28T10:16:13.607Z,43.78
2018-08-28T10:17:13.700Z,42.83
2018-08-28T10:18:13.614Z,42.35
2018-08-28T10:19:13.616Z,42.15
2018-08-28T10:20:13.624Z,42.64
2018-08-28T10:21:13.624Z,42.25
2018-08-28T10:22:13.625Z,42.33
2018-08-28T10:23:13.627Z,42.13
2018-08-28T10:24:13.630Z,42.33
2018-08-28T10:25:13.633Z,42.6
2018-08-28T10:26:13.383Z,43.08
2018-08-28T10:27:13.638Z,43.57
2018-08-28T10:28:13.390Z,43.86
2018-08-28T10:29:13.644Z,43.49
2018-08-28T10:30:13.680Z,43.4
2018-08-28T10:31:13.650Z,43.1
2018-08-28T10:32:13.654Z,43.3
2018-08-28T10:33:13.655Z,42.33
2018-08-28T10:34:13.657Z,42.33
2018-08-28T10:35:13.409Z,42.71
2018-08-28T10:36:13.412Z,42.23
2018-08-28T10:37:13.668Z,42.23
2018-08-28T10:38:13.908Z,41.94
2018-08-28T10:39:13.672Z,41.96
2018-08-28T10:40:13.676Z,41.86
2018-08-28T10:41:13.430Z,41.28
2018-08-28T10:42:13.680Z,41.36
2018-08-28T10:43:13.431Z,41.84
2018-08-28T10:44:13.435Z,42.03
2018-08-28T10:45:13.441Z,41.94
2018-08-28T10:46:14.014Z,42.33
2018-08-28T10:47:13.694Z,42.02
2018-08-28T10:48:13.445Z,42.6
2018-08-28T10:49:13.700Z,42.67
2018-08-28T10:50:13.450Z,43.26
2018-08-28T10:51:13.454Z,43.82
2018-08-28T10:52:13.706Z,44.49
2018-08-28T10:53:13.709Z,44.18
2018-08-28T10:54:13.712Z,44.76
2018-08-28T10:55:13.716Z,45.32
2018-08-28T10:56:13.721Z,45.32
2018-08-28T10:57:13.464Z,45.71
2018-08-28T10:58:13.720Z,46.29
2018-08-28T10:59:13.722Z,46.58
2018-08-28T11:00:13.471Z,46.58
2018-08-28T11:01:13.473Z,46.39
2018-08-28T11:02:14.026Z,46.56
2018-08-28T11:03:13.726Z,46.36
2018-08-28T11:04:13.480Z,46.29
2018-08-28T11:05:13.729Z,44.35
2018-08-28T11:06:13.732Z,43.87
2018-08-28T11:07:13.481Z,43.96
2018-08-28T11:08:13.736Z,44.23
2018-08-28T11:09:13.484Z,43.87
2018-08-28T11:10:13.738Z,43.95
2018-08-28T11:11:13.486Z,44.04
2018-08-28T11:12:13.745Z,44.43
2018-08-28T11:13:13.741Z,44.35
2018-08-28T11:14:13.741Z,44.54
2018-08-28T11:15:13.743Z,44.93
2018-08-28T11:16:13.513Z,44.84
2018-08-28T11:17:13.755Z,44.64
2018-08-28T11:18:13.753Z,44.47
2018-08-28T11:19:13.749Z,44.09
2018-08-28T11:20:13.751Z,44.09
2018-08-28T11:21:13.499Z,43.23
2018-08-28T11:22:13.507Z,42.26
2018-08-28T11:23:13.502Z,42.17
2018-08-28T11:24:13.756Z,42.36
2018-08-28T11:25:13.757Z,42.75
2018-08-28T11:26:13.764Z,42.36
2018-08-28T11:27:13.513Z,42.34
2018-08-28T11:28:13.509Z,42.24
2018-08-28T11:29:13.765Z,42.34
2018-08-28T11:30:13.771Z,42.92
2018-08-28T11:31:13.549Z,43.02
2018-08-28T11:32:13.774Z,43.5
2018-08-28T11:33:13.770Z,42.34
2018-08-28T11:34:13.774Z,42.54
2018-08-28T11:35:13.774Z,42.72
2018-08-28T11:36:13.780Z,42.14
2018-08-28T11:37:13.781Z,41.66
2018-08-28T11:38:13.791Z,41.39
2018-08-28T11:39:13.779Z,41.39
2018-08-28T11:40:13.779Z,41.2
2018-08-28T11:41:13.780Z,41.22
2018-08-28T11:42:13.785Z,40.92
2018-08-28T11:43:13.531Z,40.95
2018-08-28T11:44:13.784Z,41.05
2018-08-28T11:45:13.787Z,40.36
2018-08-28T11:46:13.797Z,40.46
2018-08-28T11:47:13.964Z,39.88
2018-08-28T11:48:13.792Z,39.12
2018-08-28T11:49:13.798Z,39.51
2018-08-28T11:50:13.797Z,39.98
2018-08-28T11:51:13.798Z,39.78
2018-08-28T11:52:13.919Z,39.78
2018-08-28T11:53:13.635Z,39.69
2018-08-28T11:54:13.552Z,39.49
2018-08-28T11:55:13.807Z,39.69
2018-08-28T11:56:13.556Z,39.49
2018-08-28T11:57:13.820Z,39.78
2018-08-28T11:58:13.814Z,39.98
2018-08-28T11:59:13.815Z,40.56
2018-08-28T12:00:13.821Z,40.56
2018-08-28T12:01:13.826Z,39.49
2018-08-28T12:02:13.825Z,38.91
2018-08-28T12:03:13.829Z,39.01
2018-08-28T12:04:13.825Z,39.39
2018-08-28T12:05:14.324Z,38.81
2018-08-28T12:06:13.829Z,38.99
2018-08-28T12:07:14.032Z,38.99
2018-08-28T12:08:13.833Z,39.08
2018-08-28T12:09:13.834Z,38.99
2018-08-28T12:10:13.842Z,38.79
2018-08-28T12:11:13.842Z,39.18
2018-08-28T12:12:14.446Z,39.57
2018-08-28T12:13:14.141Z,39.95
2018-08-28T12:14:13.845Z,40.15
2018-08-28T12:15:13.848Z,40.34
2018-08-28T12:16:13.851Z,40.44
2018-08-28T12:17:13.852Z,40.34
2018-08-28T12:18:13.853Z,40.05
2018-08-28T12:19:13.857Z,39.86
2018-08-28T12:20:13.858Z,39.95
2018-08-28T12:21:13.606Z,40.15
2018-08-28T12:22:13.860Z,40.34
2018-08-28T12:23:13.866Z,40.25
2018-08-28T12:24:13.866Z,40.54
2018-08-28T12:25:13.865Z,40.15
2018-08-28T12:26:13.868Z,40.54
2018-08-28T12:27:13.870Z,40.15
2018-08-28T12:28:13.618Z,40.15
2018-08-28T12:29:13.621Z,40.44
2018-08-28T12:30:13.875Z,40.54
2018-08-28T12:31:13.874Z,40.25
2018-08-28T12:32:13.878Z,40.36
2018-08-28T12:33:13.879Z,39.98
2018-08-28T12:34:13.628Z,40.25
2018-08-28T12:35:13.630Z,39.95
2018-08-28T12:36:13.886Z,40.08
2018-08-28T12:37:14.111Z,39.49
2018-08-28T12:38:13.891Z,39.59
2018-08-28T12:39:13.889Z,39.88
2018-08-28T12:40:13.891Z,40.26
2018-08-28T12:41:13.895Z,40.26
2018-08-28T12:42:13.642Z,39.9
2018-08-28T12:43:13.644Z,39.7
2018-08-28T12:44:14.128Z,39.03
2018-08-28T12:45:13.898Z,38.95
2018-08-28T12:46:13.992Z,38.07
2018-08-28T12:47:13.906Z,37.98
2018-08-28T12:48:13.930Z,38.17
2018-08-28T12:49:13.910Z,37.6
2018-08-28T12:50:13.659Z,37.6
2018-08-28T12:51:14.052Z,37.02
2018-08-28T12:52:13.922Z,36.83
2018-08-28T12:53:13.935Z,37.32
2018-08-28T12:54:13.931Z,37.24
2018-08-28T12:55:13.673Z,37.04
2018-08-28T12:56:13.675Z,36.94
2018-08-28T12:57:13.678Z,37.14
2018-08-28T12:58:13.681Z,37.14
2018-08-28T12:59:13.938Z,36.18
2018-08-28T13:00:13.938Z,36.18
2018-08-28T13:01:13.942Z,35.6
2018-08-28T13:02:14.061Z,35.49
2018-08-28T13:03:13.696Z,35.88
2018-08-28T13:04:13.700Z,36.55
2018-08-28T13:05:13.955Z,36.34
2018-08-28T13:06:13.958Z,36.24
2018-08-28T13:07:14.159Z,37.12
2018-08-28T13:08:13.968Z,37.12
2018-08-28T13:09:13.970Z,37.22
2018-08-28T13:10:13.720Z,36.26
2018-08-28T13:11:13.974Z,36.46